Time;durP1;ratioP1;P1;durP2;ratioP2;P2;SDS_P1;SDS_P2;PMS_P1;PMS_P2;Temp;Humidity;BMP_temperature;BMP_pressure;BME280_temperature;BME280_humidity;BME280_pressure;Samples;Min_cycle;Max_cycle;Signal;HPM_P1;HPM_P2
2021/10/17 00:02:22;;;;;;;11.47;4.37;;;;;;;8.12;90.90;101407.72;5111820;27;20031;-80
2021/10/17 00:04:47;;;;;;;15.73;4.20;;;;;;;8.22;90.64;101403.31;5111511;27;20088;-79
2021/10/17 00:07:14;;;;;;;14.50;5.90;;;;;;;8.28;89.83;101396.63;5128818;27;20442;-81
2021/10/17 00:09:40;;;;;;;14.15;4.57;;;;;;;8.24;89.75;101394.25;5111804;27;20050;-81
2021/10/17 00:12:06;;;;;;;;;;;;;;;8.16;90.19;101396.69;5128995;27;20031;-80
2021/10/17 00:14:32;;;;;;;;;;;;;;;8.17;90.44;101400.19;5128701;27;19930;-80
2021/10/17 00:16:57;;;;;;;12.73;5.13;;;;;;;8.13;89.96;101388.16;5128739;27;20014;-81
2021/10/17 00:19:23;;;;;;;12.03;4.07;;;;;;;8.16;89.78;101390.53;5129479;27;20046;-82
2021/10/17 00:21:48;;;;;;;12.97;5.10;;;;;;;8.13;89.11;101378.34;5129643;27;20066;-81
2021/10/17 00:24:14;;;;;;;11.77;4.03;;;;;;;8.15;89.34;101372.91;5129315;27;20035;-81
2021/10/17 00:26:39;;;;;;;12.88;4.50;;;;;;;8.04;89.06;101369.31;5128539;27;20035;-81
2021/10/17 00:29:06;;;;;;;13.63;3.40;;;;;;;8.03;88.99;101382.78;5128537;27;20035;-81
2021/10/17 00:31:31;;;;;;;12.82;4.07;;;;;;;7.99;89.22;101376.84;5128493;27;20468;-81
2021/10/17 00:33:57;;;;;;;14.10;3.97;;;;;;;8.03;88.92;101375.63;5128107;27;20034;-80
2021/10/17 00:36:24;;;;;;;16.90;3.07;;;;;;;8.02;88.51;101365.13;5128507;27;20027;-82
2021/10/17 00:38:49;;;;;;;15.55;3.45;;;;;;;8.08;88.42;101361.09;5128221;27;20277;-81
2021/10/17 00:41:16;;;;;;;11.35;3.35;;;;;;;7.96;88.31;101355.84;5111022;27;20026;-81
2021/10/17 00:43:42;;;;;;;17.65;3.95;;;;;;;8.00;88.38;101359.91;5127763;27;20438;-80
2021/10/17 00:46:18;;;;;;;10.67;3.30;;;;;;;8.02;87.89;101354.47;5129105;27;20015;-81
2021/10/17 00:48:44;;;;;;;13.88;4.15;;;;;;;7.95;88.09;101346.19;5127925;27;20043;-81
2021/10/17 00:51:10;;;;;;;8.15;3.30;;;;;;;7.98;87.55;101353.06;5111234;27;20031;-81
2021/10/17 00:53:36;;;;;;;18.13;3.92;;;;;;;7.97;87.15;101336.25;5110130;27;20069;-81
2021/10/17 00:56:02;;;;;;;12.70;3.17;;;;;;;7.95;87.53;101348.84;5128054;27;20096;-82
2021/10/17 00:58:27;;;;;;;13.73;4.15;;;;;;;7.92;87.78;101335.81;5110949;27;20030;-82
2021/10/17 01:00:53;;;;;;;12.80;3.47;;;;;;;7.91;87.98;101338.59;5128016;27;20031;-80
2021/10/17 01:03:19;;;;;;;8.65;3.10;;;;;;;7.91;88.47;101346.56;5110660;27;20038;-81
2021/10/17 01:05:45;;;;;;;;;;;;;;;7.95;88.18;101348.00;5128144;27;20043;-80
2021/10/17 01:08:11;;;;;;;;;;;;;;;7.83;88.13;101336.59;5111180;27;19972;-79
2021/10/17 01:10:36;;;;;;;20.70;3.63;;;;;;;7.86;87.83;101322.19;5110863;28;19922;-82
2021/10/17 01:13:02;;;;;;;17.20;3.27;;;;;;;7.79;88.31;101328.03;5110535;27;20603;-81
2021/10/17 01:15:31;;;;;;;11.27;4.70;;;;;;;7.81;88.31;101331.41;5111158;27;20084;-80
2021/10/17 01:17:56;;;;;;;7.80;3.23;;;;;;;7.85;88.12;101321.38;5110589;27;20043;-82
2021/10/17 01:20:23;;;;;;;16.02;3.88;;;;;;;7.91;87.85;101334.09;5110670;27;20063;-79
2021/10/17 01:22:50;;;;;;;15.23;3.78;;;;;;;7.96;87.54;101329.28;5127459;27;20066;-80
2021/10/17 01:25:15;;;;;;;14.52;3.33;;;;;;;7.89;87.52;101313.94;5110005;28;20058;-80
2021/10/17 01:27:41;;;;;;;14.93;4.38;;;;;;;7.92;87.28;101316.38;5110739;28;20474;-77
2021/10/17 01:30:09;;;;;;;11.95;3.10;;;;;;;7.94;87.30;101306.44;5127723;28;20403;-80
2021/10/17 01:32:34;;;;;;;10.75;3.08;;;;;;;7.85;87.23;101300.09;5112870;27;20081;-79
2021/10/17 01:35:00;;;;;;;14.20;3.38;;;;;;;7.80;87.53;101308.47;5114899;27;20055;-79
2021/10/17 01:37:26;;;;;;;9.02;3.63;;;;;;;7.85;87.76;101309.91;5114803;27;20524;-81
2021/10/17 01:39:52;;;;;;;13.17;3.90;;;;;;;7.78;88.06;101298.94;5131722;27;20063;-81
2021/10/17 01:42:17;;;;;;;12.80;4.03;;;;;;;7.82;88.10;101300.38;5132674;27;20095;-81
2021/10/17 01:44:49;;;;;;;12.57;3.58;;;;;;;7.81;87.96;101303.97;5114488;27;20476;-81
2021/10/17 01:47:15;;;;;;;14.93;4.53;;;;;;;7.82;88.12;101305.69;5131655;27;20041;-81
2021/10/17 01:49:40;;;;;;;7.80;3.53;;;;;;;7.93;87.97;101316.22;5114272;27;20305;-81
2021/10/17 01:52:07;;;;;;;8.90;3.13;;;;;;;7.80;87.70;101286.34;5131357;27;20470;-81
2021/10/17 01:54:35;;;;;;;10.40;3.15;;;;;;;7.93;86.54;101292.28;5114306;27;20035;-82
2021/10/17 01:57:01;;;;;;;17.98;4.30;;;;;;;7.93;85.82;101297.59;5131626;27;20027;-80
2021/10/17 01:59:32;;;;;;;14.35;3.15;;;;;;;7.84;86.10;101285.09;5114942;27;20455;-80
2021/10/17 02:02:05;;;;;;;10.50;4.05;;;;;;;7.89;86.45;101290.88;5115325;27;20027;-80
2021/10/17 02:04:31;;;;;;;11.37;3.27;;;;;;;7.86;86.00;101272.53;5114478;27;20038;-77
2021/10/17 02:06:57;;;;;;;14.98;4.97;;;;;;;7.90;85.73;101281.94;5131886;27;20408;-81
2021/10/17 02:09:23;;;;;;;16.55;3.38;;;;;;;7.86;85.64;101272.53;5114742;27;20043;-79
2021/10/17 02:11:48;;;;;;;11.00;3.43;;;;;;;7.95;85.49;101285.03;5131989;27;20090;-79
2021/10/17 02:14:14;;;;;;;9.20;3.20;;;;;;;7.91;84.99;101277.44;5114673;27;20126;-79
2021/10/17 02:16:40;;;;;;;10.30;3.35;;;;;;;7.80;85.61;101267.75;5114399;27;20103;-80
2021/10/17 02:19:05;;;;;;;12.43;3.60;;;;;;;7.74;85.91;101271.75;5131119;27;20015;-82
2021/10/17 02:21:32;;;;;;;16.25;4.53;;;;;;;7.83;85.76;101272.78;5114062;27;20030;-80
2021/10/17 02:23:58;;;;;;;15.80;4.22;;;;;;;7.86;85.74;101280.50;5114159;27;20421;-79
2021/10/17 02:26:25;;;;;;;13.00;4.15;;;;;;;7.92;84.76;101265.84;5114300;27;20534;-78
2021/10/17 02:29:10;;;;;;;16.10;4.15;;;;;;;7.85;85.47;101262.03;5117083;27;20050;-79
2021/10/17 02:31:59;;;;;;;11.52;3.88;;;;;;;7.83;85.96;101264.81;5131257;27;20050;-79
2021/10/17 02:34:25;;;;;;;;;;;;;;;7.82;85.87;101269.31;5131260;27;20035;-78
2021/10/17 02:36:51;;;;;;;;;;;;;;;7.80;86.09;101273.06;5131585;27;20051;-80
2021/10/17 02:39:16;;;;;;;;;;;;;;;7.79;86.23;101263.38;5131487;27;19922;-79
2021/10/17 02:41:44;;;;;;;7.20;2.83;;;;;;;7.72;86.54;101265.72;5113802;27;20013;-79
2021/10/17 02:44:09;;;;;;;8.73;3.60;;;;;;;7.73;86.95;101251.47;5112724;27;20172;-80
2021/10/17 02:46:35;;;;;;;14.13;3.37;;;;;;;7.76;86.50;101253.88;5113483;27;20099;-79
2021/10/17 02:49:00;;;;;;;10.27;2.97;;;;;;;7.58;86.75;101248.31;5113564;27;20099;-79
2021/10/17 02:51:27;;;;;;;;;;;;;;;7.75;86.59;101256.66;5131274;27;20042;-79
2021/10/17 02:53:52;;;;;;;;;;;;;;;7.81;86.75;101270.25;5113549;27;19911;-79
2021/10/17 02:56:18;;;;;;;12.40;4.20;;;;;;;7.71;87.13;101271.19;5130801;27;19983;-78
2021/10/17 02:58:44;;;;;;;;;;;;;;;7.86;86.58;101269.88;5114060;27;20364;-79
2021/10/17 03:01:10;;;;;;;;;;;;;;;7.92;86.21;101268.50;5131179;27;19912;-78
2021/10/17 03:03:36;;;;;;;;;;;;;;;7.88;87.20;101275.06;5113945;27;20002;-78
2021/10/17 03:06:02;;;;;;;14.70;4.20;;;;;;;7.80;87.79;101273.06;5113383;27;20346;-78
2021/10/17 03:08:28;;;;;;;12.93;3.92;;;;;;;7.81;88.31;101282.72;5113446;27;20534;-77
2021/10/17 03:10:58;;;;;;;14.30;4.78;;;;;;;7.86;88.25;101264.53;5114009;27;20039;-78
2021/10/17 03:13:24;;;;;;;8.65;3.53;;;;;;;7.89;88.43;101266.09;5130301;27;20036;-78
2021/10/17 03:15:49;;;;;;;10.93;3.90;;;;;;;7.87;88.53;101265.41;5113256;27;20039;-79
2021/10/17 03:18:19;;;;;;;15.65;4.38;;;;;;;7.87;88.97;101263.59;5113658;27;20035;-81
2021/10/17 03:20:44;;;;;;;14.77;4.57;;;;;;;7.87;89.21;101271.56;5129999;27;20505;-78
2021/10/17 03:23:11;;;;;;;16.05;5.03;;;;;;;7.87;89.74;101276.03;5113216;27;20456;-78
2021/10/17 03:25:38;;;;;;;13.88;4.82;;;;;;;7.81;90.61;101267.59;5112797;27;20035;-77
2021/10/17 03:28:04;;;;;;;20.95;5.50;;;;;;;7.71;91.58;101263.22;5112868;27;20193;-78
2021/10/17 03:30:30;;;;;;;;;;;;;;;7.70;92.47;101269.50;5113259;27;20499;-77
2021/10/17 03:32:55;;;;;;;12.68;5.63;;;;;;;7.71;92.44;101279.16;5129903;27;19926;-77
2021/10/17 03:35:21;;;;;;;13.73;4.83;;;;;;;7.78;92.26;101272.34;5112524;27;20444;-77
2021/10/17 03:37:47;;;;;;;8.73;4.47;;;;;;;7.83;92.28;101267.47;5129927;27;20276;-78
2021/10/17 03:40:12;;;;;;;11.63;4.57;;;;;;;7.85;92.21;101268.19;5130333;27;20284;-79
2021/10/17 03:42:38;;;;;;;10.93;4.60;;;;;;;7.83;92.42;101278.94;5129499;27;20497;-78
2021/10/17 03:45:04;;;;;;;16.63;4.93;;;;;;;7.74;92.52;101262.94;5112247;27;20375;-78
2021/10/17 03:47:31;;;;;;;10.05;4.32;;;;;;;7.81;92.69;101269.41;5113188;27;20031;-78
2021/10/17 03:49:58;;;;;;;11.50;4.45;;;;;;;7.75;92.62;101267.28;5112992;27;20312;-79
2021/10/17 03:52:29;;;;;;;21.05;6.00;;;;;;;7.68;93.09;101266.97;5129635;27;20122;-78
2021/10/17 03:54:55;;;;;;;14.13;5.47;;;;;;;7.70;93.38;101258.88;5111465;27;20071;-78
2021/10/17 03:57:21;;;;;;;12.57;5.63;;;;;;;7.76;92.99;101269.81;5112462;27;20469;-78
2021/10/17 03:59:47;;;;;;;;;;;;;;;7.61;93.73;101269.31;5112619;27;20290;-78
2021/10/17 04:02:13;;;;;;;;;;;;;;;7.60;94.27;101274.75;5129790;27;20597;-79
2021/10/17 04:04:38;;;;;;;18.30;7.20;;;;;;;7.57;94.33;101267.06;5128967;27;20259;-78
2021/10/17 04:07:05;;;;;;;22.37;7.47;;;;;;;7.48;94.94;101273.97;5112020;27;20492;-78
2021/10/17 04:09:35;;;;;;;16.55;5.82;;;;;;;7.51;94.97;101267.56;5112832;27;20035;-78
2021/10/17 04:12:00;;;;;;;22.27;5.50;;;;;;;7.56;95.23;101278.63;5129004;27;20042;-78
2021/10/17 04:14:28;;;;;;;15.07;5.38;;;;;;;7.48;95.37;101281.13;5111776;27;20031;-78
2021/10/17 04:16:53;;;;;;;15.85;6.07;;;;;;;7.42;95.50;101277.13;5112129;27;20042;-78
2021/10/17 04:19:19;;;;;;;21.47;5.17;;;;;;;7.36;96.03;101283.81;5128848;27;20049;-78
2021/10/17 04:21:44;;;;;;;19.42;6.90;;;;;;;7.31;96.15;101275.41;5111917;27;20038;-79
2021/10/17 04:24:10;;;;;;;12.73;6.82;;;;;;;7.31;96.51;101279.88;5111567;27;20023;-79
2021/10/17 04:26:37;;;;;;;19.88;5.10;;;;;;;7.35;96.68;101287.47;5128743;27;20034;-78
2021/10/17 04:29:04;;;;;;;18.10;5.55;;;;;;;7.30;96.74;101288.81;5111796;27;20463;-78
2021/10/17 04:31:29;;;;;;;16.83;5.83;;;;;;;7.27;97.28;101302.34;5111250;27;20034;-82
2021/10/17 04:33:55;;;;;;;16.88;6.05;;;;;;;7.24;97.57;101294.63;5128234;27;20168;-79
2021/10/17 04:36:20;;;;;;;19.10;6.22;;;;;;;7.11;98.10;101285.00;5128583;27;20074;-78
2021/10/17 04:38:46;;;;;;;16.13;5.43;;;;;;;7.07;98.47;101288.91;5111581;27;20015;-79
2021/10/17 04:41:13;;;;;;;14.77;5.45;;;;;;;7.10;99.13;101309.06;5111424;27;20031;-78
2021/10/17 04:43:39;;;;;;;21.13;6.30;;;;;;;7.04;99.62;101307.72;5111348;27;20027;-78
2021/10/17 04:46:05;;;;;;;18.00;6.75;;;;;;;7.14;100.00;101316.66;5111330;27;20477;-78
2021/10/17 04:48:30;;;;;;;17.23;6.38;;;;;;;7.17;100.00;101321.69;5128342;27;20046;-80
2021/10/17 04:50:56;;;;;;;25.63;8.20;;;;;;;7.08;100.00;101311.81;5129377;27;20027;-79
2021/10/17 04:53:21;;;;;;;11.53;5.37;;;;;;;7.09;100.00;101318.81;5127963;27;20031;-79
2021/10/17 04:55:47;;;;;;;20.67;7.63;;;;;;;7.17;100.00;101334.13;5110546;27;20281;-81
2021/10/17 04:58:14;;;;;;;16.95;5.78;;;;;;;7.05;100.00;101322.72;5128029;27;20412;-80
2021/10/17 05:00:40;;;;;;;17.67;6.33;;;;;;;7.10;100.00;101325.81;5111370;27;20066;-79
2021/10/17 05:03:06;;;;;;;17.40;6.65;;;;;;;7.21;100.00;101342.69;5128370;27;20351;-79
2021/10/17 05:05:33;;;;;;;18.33;6.60;;;;;;;7.28;100.00;101333.22;5128075;27;20118;-79
2021/10/17 05:08:00;;;;;;;21.48;7.47;;;;;;;7.35;100.00;101335.28;5127415;27;20039;-78
2021/10/17 05:10:26;;;;;;;18.77;7.28;;;;;;;7.38;100.00;101331.53;5128506;27;20023;-79
2021/10/17 05:12:52;;;;;;;;;;;;;;;7.49;100.00;101342.09;5129001;27;20387;-78
2021/10/17 05:15:18;;;;;;;18.23;6.13;;;;;;;7.58;100.00;101343.13;5128073;27;20406;-79
2021/10/17 05:17:44;;;;;;;16.08;7.00;;;;;;;7.57;100.00;101344.94;5128080;27;20059;-79
2021/10/17 05:20:10;;;;;;;25.97;7.57;;;;;;;7.53;100.00;101342.69;5128112;27;20345;-79
2021/10/17 05:22:36;;;;;;;16.25;7.00;;;;;;;7.54;100.00;101337.25;5128119;27;20027;-79
2021/10/17 05:25:02;;;;;;;23.63;6.82;;;;;;;7.59;100.00;101331.53;5110827;27;20035;-78
2021/10/17 05:27:28;;;;;;;22.05;7.53;;;;;;;7.70;100.00;101336.81;5111186;28;20031;-79
2021/10/17 05:29:53;;;;;;;17.33;7.15;;;;;;;7.66;100.00;101335.38;5110907;28;20030;-79
2021/10/17 05:32:20;;;;;;;25.60;8.33;;;;;;;7.67;100.00;101336.22;5127792;27;20429;-78
2021/10/17 05:34:46;;;;;;;22.77;9.48;;;;;;;7.64;100.00;101331.16;5127511;27;20031;-78
2021/10/17 05:37:12;;;;;;;23.45;8.63;;;;;;;7.58;100.00;101338.66;5128053;28;20503;-78
2021/10/17 05:39:38;;;;;;;17.02;6.68;;;;;;;7.64;100.00;101347.09;5128058;27;20062;-79
2021/10/17 05:42:04;;;;;;;20.83;7.18;;;;;;;7.66;100.00;101353.97;5127890;28;20404;-79
2021/10/17 05:44:30;;;;;;;20.55;6.82;;;;;;;7.70;100.00;101365.16;5127684;27;20099;-78
2021/10/17 05:46:56;;;;;;;18.75;6.55;;;;;;;7.73;100.00;101367.59;5128097;28;20058;-78
2021/10/17 05:49:22;;;;;;;19.50;6.15;;;;;;;7.68;100.00;101352.03;5127853;27;20041;-78
2021/10/17 05:51:47;;;;;;;21.20;8.30;;;;;;;7.63;100.00;101356.88;5110730;27;20035;-78
2021/10/17 05:54:13;;;;;;;21.45;8.10;;;;;;;7.60;100.00;101362.44;5127502;27;20039;-78
2021/10/17 05:56:39;;;;;;;18.80;7.95;;;;;;;7.57;100.00;101358.22;5127750;27;20476;-80
2021/10/17 05:59:09;;;;;;;14.53;7.33;;;;;;;7.56;100.00;101358.34;5110905;28;20478;-78
2021/10/17 06:01:36;;;;;;;23.38;8.15;;;;;;;7.65;100.00;101372.69;5110915;28;20038;-78
2021/10/17 06:04:07;;;;;;;25.13;9.00;;;;;;;7.68;100.00;101378.63;5127622;27;20298;-78
2021/10/17 06:06:51;;;;;;;11.77;6.00;;;;;;;7.71;100.00;101377.50;5128537;27;20046;-80
2021/10/17 06:09:17;;;;;;;16.23;6.88;;;;;;;7.72;100.00;101376.53;5127322;27;20031;-80
2021/10/17 06:11:42;;;;;;;19.77;7.70;;;;;;;7.77;100.00;101375.19;5110020;28;20039;-80
2021/10/17 06:14:09;;;;;;;21.25;6.47;;;;;;;7.84;100.00;101372.81;5126722;28;20019;-81
2021/10/17 06:16:35;;;;;;;19.75;6.88;;;;;;;7.93;100.00;101371.22;5110255;28;20042;-79
2021/10/17 06:19:00;;;;;;;16.67;6.60;;;;;;;7.90;100.00;101358.19;5129947;27;20027;-78
2021/10/17 06:21:33;;;;;;;19.60;6.30;;;;;;;8.03;100.00;101354.34;5115433;27;20096;-78
2021/10/17 06:23:58;;;;;;;13.60;5.50;;;;;;;8.07;100.00;101354.09;5130925;27;20413;-81
2021/10/17 06:26:24;;;;;;;15.13;6.53;;;;;;;8.16;100.00;101351.47;5113943;27;20074;-81
2021/10/17 06:28:49;;;;;;;11.43;5.80;;;;;;;8.22;100.00;101350.97;5113789;27;20390;-79
2021/10/17 06:31:15;;;;;;;19.53;6.40;;;;;;;8.23;99.83;101349.97;5131127;27;20303;-78
2021/10/17 06:33:43;;;;;;;22.15;7.53;;;;;;;8.18;99.43;101359.34;5114263;27;20046;-77
2021/10/17 06:36:09;;;;;;;18.80;5.25;;;;;;;8.25;99.39;101365.81;5114082;27;20035;-80
2021/10/17 06:38:34;;;;;;;14.30;5.78;;;;;;;8.23;98.87;101363.28;5130955;27;20034;-80
2021/10/17 06:41:00;;;;;;;15.15;5.50;;;;;;;8.36;98.88;101363.06;5113638;27;20035;-80
2021/10/17 06:43:26;;;;;;;15.98;5.43;;;;;;;8.25;98.76;101365.81;5130313;27;20031;-79
2021/10/17 06:45:53;;;;;;;15.30;5.35;;;;;;;8.24;98.44;101370.28;5130564;27;20023;-78
2021/10/17 06:48:22;;;;;;;13.32;5.22;;;;;;;8.27;98.20;101371.84;5130450;27;20417;-79
2021/10/17 06:50:47;;;;;;;10.27;5.00;;;;;;;8.13;97.92;101362.38;5130187;27;20402;-79
2021/10/17 06:53:13;;;;;;;13.88;5.75;;;;;;;8.20;98.23;101373.34;5130094;27;20544;-79
2021/10/17 06:55:40;;;;;;;15.70;5.95;;;;;;;8.20;98.12;101373.34;5129717;27;20483;-80
2021/10/17 06:58:06;;;;;;;17.15;6.00;;;;;;;8.19;98.57;101361.00;5113331;27;20027;-79
2021/10/17 07:00:32;;;;;;;16.60;5.77;;;;;;;8.24;98.73;101374.75;5113149;27;20111;-80
2021/10/17 07:02:57;;;;;;;12.40;5.90;;;;;;;8.14;99.27;101371.19;5113026;27;20031;-80
2021/10/17 07:05:25;;;;;;;17.27;6.22;;;;;;;8.20;99.89;101384.81;5129837;27;20410;-80
2021/10/17 07:07:51;;;;;;;15.60;6.25;;;;;;;8.27;99.63;101389.63;5113164;27;20084;-79
2021/10/17 07:10:17;;;;;;;20.77;6.38;;;;;;;8.28;99.53;101386.81;5113112;27;20019;-79
2021/10/17 07:13:18;;;;;;;14.25;5.70;;;;;;;8.32;99.19;101390.06;5075705;28;20416;-80
2021/10/17 07:16:04;;;;;;;16.52;5.45;;;;;;;8.47;99.36;101399.41;5121202;27;20046;-80
2021/10/17 07:18:30;;;;;;;16.38;6.47;;;;;;;8.55;99.03;101393.44;5112736;27;20084;-80
2021/10/17 07:20:56;;;;;;;14.65;6.85;;;;;;;8.51;98.38;101386.69;5129691;27;20401;-80
2021/10/17 07:23:22;;;;;;;15.77;6.28;;;;;;;8.55;99.06;101394.28;5129646;27;20153;-79
2021/10/17 07:25:48;;;;;;;18.10;7.18;;;;;;;8.44;98.93;101392.53;5112948;27;20495;-77
2021/10/17 07:28:13;;;;;;;20.40;6.83;;;;;;;8.42;99.07;101389.16;5112802;27;20019;-77
2021/10/17 07:30:57;;;;;;;14.80;6.20;;;;;;;8.52;98.96;101393.69;5114479;27;20037;-78
2021/10/17 07:33:22;;;;;;;16.13;7.20;;;;;;;8.53;99.38;101404.22;5129264;27;20031;-77
2021/10/17 07:35:48;;;;;;;16.73;6.70;;;;;;;8.70;99.78;101407.22;5129684;27;20042;-77
2021/10/17 07:38:14;;;;;;;14.13;5.95;;;;;;;8.65;99.27;101403.13;5129551;27;20067;-78
2021/10/17 07:40:40;;;;;;;17.52;7.85;;;;;;;8.69;98.82;101411.72;5112222;27;20039;-79
2021/10/17 07:43:06;;;;;;;13.38;6.53;;;;;;;8.75;100.00;101421.81;5112360;27;20019;-78
2021/10/17 07:45:32;;;;;;;16.15;7.38;;;;;;;8.81;100.00;101417.78;5112174;27;20150;-79
2021/10/17 07:47:58;;;;;;;17.80;8.32;;;;;;;8.84;100.00;101421.00;5112188;27;20041;-78
2021/10/17 07:50:24;;;;;;;17.65;7.95;;;;;;;8.78;100.00;101415.38;5112114;27;20166;-78
2021/10/17 07:52:50;;;;;;;18.20;8.00;;;;;;;8.82;100.00;101427.44;5129181;27;20023;-77
2021/10/17 07:55:28;;;;;;;16.38;8.45;;;;;;;8.78;100.00;101428.69;5113875;27;20058;-78
2021/10/17 07:57:58;;;;;;;21.70;9.15;;;;;;;8.72;100.00;101442.53;5129376;27;20035;-78
2021/10/17 08:00:30;;;;;;;20.98;9.43;;;;;;;8.72;100.00;101442.53;5113174;27;20110;-76
2021/10/17 08:03:19;;;;;;;18.55;9.23;;;;;;;8.81;100.00;101458.56;5128970;27;20059;-77
2021/10/17 08:05:55;;;;;;;20.63;10.93;;;;;;;8.71;100.00;101451.50;5128955;27;20043;-78
2021/10/17 08:08:21;;;;;;;24.25;10.32;;;;;;;8.65;100.00;101458.19;5129866;27;20519;-77
2021/10/17 08:10:46;;;;;;;25.47;10.03;;;;;;;8.71;100.00;101467.47;5128993;27;20363;-77
2021/10/17 08:13:13;;;;;;;24.98;11.02;;;;;;;8.73;100.00;101465.50;5128689;27;20130;-78
2021/10/17 08:15:43;;;;;;;18.48;8.68;;;;;;;8.76;100.00;101471.44;5128793;27;20471;-78
2021/10/17 08:18:09;;;;;;;20.23;9.90;;;;;;;8.81;100.00;101466.53;5111751;27;20038;-78
2021/10/17 08:20:47;;;;;;;23.75;11.35;;;;;;;8.95;100.00;101469.84;5113276;27;20461;-78
2021/10/17 08:23:14;;;;;;;21.98;9.35;;;;;;;8.95;100.00;101465.34;5111681;27;20417;-78
2021/10/17 08:25:39;;;;;;;24.88;9.85;;;;;;;9.00;100.00;101464.94;5128624;27;20061;-78
2021/10/17 08:28:06;;;;;;;;;;;;;;;8.97;100.00;101463.38;5129141;27;20129;-78
2021/10/17 08:30:33;;;;;;;19.60;10.23;;;;;;;9.04;100.00;101469.88;5128644;27;19928;-78
2021/10/17 08:32:58;;;;;;;20.47;10.47;;;;;;;8.97;100.00;101457.22;5111444;27;20031;-78
2021/10/17 08:35:26;;;;;;;21.75;8.60;;;;;;;8.99;100.00;101464.09;5128346;27;20023;-78
2021/10/17 08:37:52;;;;;;;17.52;8.77;;;;;;;9.02;100.00;101461.16;5128454;27;20039;-78
2021/10/17 08:40:39;;;;;;;20.85;8.80;;;;;;;8.93;100.00;101458.47;5128512;27;20171;-79
2021/10/17 08:43:24;;;;;;;16.55;7.53;;;;;;;9.03;100.00;101470.81;5128554;27;20038;-79
2021/10/17 08:45:59;;;;;;;;;;;;;;;9.21;100.00;101465.72;5128474;27;20113;-76
2021/10/17 08:48:31;;;;;;;19.58;8.95;;;;;;;9.25;100.00;101469.78;5112404;27;19915;-76
2021/10/17 08:50:58;;;;;;;19.13;6.65;;;;;;;9.13;100.00;101462.88;5128693;27;20031;-77
2021/10/17 08:53:30;;;;;;;15.63;7.32;;;;;;;9.00;100.00;101451.63;5127996;27;20034;-77
2021/10/17 08:56:05;;;;;;;22.35;7.93;;;;;;;9.02;100.00;101477.16;5112800;27;20038;-76
2021/10/17 08:58:37;;;;;;;23.77;7.78;;;;;;;9.10;100.00;101484.44;5128489;27;20046;-76
2021/10/17 09:01:13;;;;;;;15.32;7.32;;;;;;;9.04;100.00;101479.69;5111685;27;20082;-77
2021/10/17 09:04:00;;;;;;;16.48;8.30;;;;;;;9.05;100.00;101484.84;5111709;27;20027;-78
2021/10/17 09:06:52;;;;;;;19.88;9.15;;;;;;;8.98;100.00;101486.38;5089266;27;20552;-79
2021/10/17 09:09:19;;;;;;;23.13;8.85;;;;;;;9.05;100.00;101492.00;5111020;27;20329;-79
2021/10/17 09:11:57;;;;;;;20.42;9.20;;;;;;;8.94;100.00;101495.59;5112644;27;20129;-79
2021/10/17 09:14:25;;;;;;;24.35;9.93;;;;;;;9.07;100.00;101501.56;5127558;27;20043;-79
2021/10/17 09:16:53;;;;;;;21.17;8.05;;;;;;;9.19;100.00;101504.97;5127728;27;20038;-79
2021/10/17 09:19:23;;;;;;;18.52;8.55;;;;;;;9.18;100.00;101494.47;5128750;27;20042;-79
2021/10/17 09:22:03;;;;;;;20.33;8.85;;;;;;;9.11;100.00;101496.81;5110722;28;20083;-79
2021/10/17 09:24:47;;;;;;;25.08;10.77;;;;;;;9.01;100.00;101501.25;5110515;27;20079;-79
2021/10/17 09:27:14;;;;;;;18.95;9.23;;;;;;;9.12;100.00;101493.16;5127860;27;20023;-78
2021/10/17 09:29:42;;;;;;;;;;;;;;;9.16;100.00;101504.41;5111236;28;20035;-78
2021/10/17 09:32:12;;;;;;;21.92;11.35;;;;;;;9.13;100.00;101504.66;5127558;28;19915;-79
2021/10/17 09:34:38;;;;;;;25.42;13.60;;;;;;;8.95;100.00;101499.13;5127996;28;20175;-78
2021/10/17 09:37:12;;;;;;;25.45;13.77;;;;;;;9.01;100.00;101502.09;5127256;27;20031;-78
2021/10/17 09:40:18;;;;;;;30.38;14.45;;;;;;;8.94;100.00;101500.09;5127987;28;20490;-77
2021/10/17 09:43:05;;;;;;;26.65;14.48;;;;;;;8.88;100.00;101504.97;5112603;28;20031;-77
2021/10/17 09:45:36;;;;;;;41.17;16.08;;;;;;;8.86;100.00;101511.41;5127127;28;20038;-77
2021/10/17 09:48:03;;;;;;;26.60;15.38;;;;;;;8.98;100.00;101513.00;5127402;28;20039;-78
2021/10/17 09:50:29;;;;;;;33.83;15.82;;;;;;;8.92;100.00;101507.38;5127077;27;20175;-77
2021/10/17 09:52:58;;;;;;;26.48;15.60;;;;;;;8.84;100.00;101511.53;5128191;27;20031;-78
2021/10/17 09:55:25;;;;;;;36.03;17.73;;;;;;;8.85;100.00;101512.41;5130877;27;20034;-78
2021/10/17 09:57:51;;;;;;;29.55;16.42;;;;;;;8.90;100.00;101515.50;5131138;27;20368;-79
2021/10/17 10:00:18;;;;;;;29.42;16.65;;;;;;;8.97;100.00;101515.81;5114378;27;20041;-79
2021/10/17 10:02:48;;;;;;;36.63;16.33;;;;;;;8.88;100.00;101510.31;5131330;27;20019;-79
2021/10/17 10:05:16;;;;;;;33.03;17.20;;;;;;;8.90;100.00;101510.19;5130899;27;20046;-80
2021/10/17 10:07:43;;;;;;;36.65;16.70;;;;;;;8.88;100.00;101518.28;5132224;27;20042;-79
2021/10/17 10:10:09;;;;;;;32.33;15.93;;;;;;;8.79;100.00;101508.44;5131503;27;20043;-78
2021/10/17 10:12:38;;;;;;;35.13;16.77;;;;;;;8.83;100.00;101504.53;5131103;27;20043;-79
2021/10/17 10:15:05;;;;;;;43.20;19.52;;;;;;;8.77;100.00;101513.03;5130840;27;20049;-79
2021/10/17 10:17:32;;;;;;;34.50;16.10;;;;;;;8.86;100.00;101514.91;5131960;27;20050;-78
2021/10/17 10:19:59;;;;;;;35.00;17.33;;;;;;;8.80;100.00;101495.94;5113833;27;20023;-79
2021/10/17 10:22:25;;;;;;;38.67;17.13;;;;;;;8.89;100.00;101508.47;5131855;27;20118;-79
2021/10/17 10:24:52;;;;;;;32.22;17.38;;;;;;;8.97;100.00;101515.81;5113312;27;20035;-78
2021/10/17 10:27:19;;;;;;;32.42;18.08;;;;;;;8.99;100.00;101504.06;5130774;27;20041;-79
2021/10/17 10:29:45;;;;;;;33.55;17.23;;;;;;;8.91;100.00;101489.72;5130785;27;20054;-78
2021/10/17 10:32:21;;;;;;;39.53;17.30;;;;;;;8.96;100.00;101477.66;5131872;27;20483;-79
2021/10/17 10:34:52;;;;;;;39.05;20.38;;;;;;;8.92;100.00;101484.25;5130490;27;20046;-78
2021/10/17 10:37:19;;;;;;;38.28;18.60;;;;;;;8.92;100.00;101491.38;5130799;27;20057;-78
2021/10/17 10:40:03;;;;;;;32.80;17.83;;;;;;;8.92;100.00;101486.06;5130953;27;20045;-77
2021/10/17 10:42:37;;;;;;;36.58;19.48;;;;;;;8.93;100.00;101474.44;5130565;27;20356;-77
2021/10/17 10:45:22;;;;;;;44.42;21.00;;;;;;;9.07;100.00;101490.06;5129988;27;20379;-78
2021/10/17 10:48:08;;;;;;;42.10;20.42;;;;;;;9.16;100.00;101486.59;5130256;27;20042;-78
2021/10/17 10:50:37;;;;;;;39.85;19.55;;;;;;;9.21;100.00;101476.38;5130127;27;20035;-77
2021/10/17 10:53:03;;;;;;;37.65;18.27;;;;;;;9.15;100.00;101463.56;5130205;27;20110;-77
2021/10/17 10:55:48;;;;;;;36.25;17.85;;;;;;;9.16;100.00;101459.94;5130672;27;20356;-74
2021/10/17 10:58:36;;;;;;;33.27;17.13;;;;;;;9.23;100.00;101458.41;5130046;27;20043;-77
2021/10/17 11:01:03;;;;;;;38.60;18.70;;;;;;;9.25;100.00;101442.31;5112848;27;20276;-77
2021/10/17 11:03:43;;;;;;;32.35;17.05;;;;;;;9.14;100.00;101445.91;5129849;27;20031;-77
2021/10/17 11:06:08;;;;;;;41.72;19.70;;;;;;;9.13;100.00;101438.91;5128927;27;20062;-77
2021/10/17 11:08:37;;;;;;;36.27;17.67;;;;;;;9.26;100.00;101444.81;5130915;27;20066;-77
2021/10/17 11:11:03;;;;;;;35.80;18.67;;;;;;;9.32;100.00;101439.91;5130035;27;20417;-76
2021/10/17 11:13:34;;;;;;;36.30;17.13;;;;;;;9.38;100.00;101434.03;5112680;27;20015;-75
2021/10/17 11:16:01;;;;;;;34.65;18.73;;;;;;;9.25;100.00;101435.16;5130164;27;20045;-75
2021/10/17 11:18:32;;;;;;;36.85;19.58;;;;;;;9.34;100.00;101435.28;5130028;27;20407;-75
2021/10/17 11:20:59;;;;;;;39.60;17.50;;;;;;;9.39;100.00;101446.38;5112898;27;20092;-77
2021/10/17 11:23:26;;;;;;;34.22;17.33;;;;;;;9.44;100.00;101447.66;5112358;27;20031;-78
2021/10/17 11:26:00;;;;;;;34.78;17.63;;;;;;;9.39;100.00;101449.91;5129731;27;20035;-78
2021/10/17 11:28:28;;;;;;;32.70;18.38;;;;;;;9.48;100.00;101465.06;5129403;27;20030;-78
2021/10/17 11:31:15;;;;;;;34.65;19.13;;;;;;;9.33;100.00;101463.78;5130567;27;20031;-78